Hlavní strana
METAR-TAF:

METAR-TAF

Letiště :

St. Moritz, Švýcarsko

zeměpisná šířka: 46-32-03N, zeměpisná délka: 9-53-03E, výška: 1707 m

Aktuální stav počasí

Zpráva byla vytvořena před 29 minutami, v 09:50 UTC
vítr z různých směrů 2 kt
Teplota 16°C
Vlhkost vzduchu 72%
Tlak 1026 hPa
Viditelnost 10 km a více
Skoro jasno ve výšce 5500 ft

METAR: LSZS 180950Z VRB02KT 9999 FEW055 16/11 Q1026 RMK J

Čas: 12:19 (10:19 UTC)

Předpověď počasí

Zpráva byla vytvořena před 1 hodinou a 54 minutami, v 08:25 UTC
Předpověď platná od 18 v 09 UTC do 18 v 18 UTC
vítr z různých směrů 3 kt
Viditelnost 10 km a více
Skoro jasno ve výšce 700 ft
Oblačno až skoro zataženo ve výšce 10000 ft
Dočasný
od 18 v 12 UTC do 18 v 18 UTC
dešťové přeháňky
Pravděpodobnost 30%
od 18 v 14 UTC do 18 v 18 UTC
Viditelnost: 4500 m
Skoro jasno ve výšce 4000 ft, Cumulonimbus.
Polojasno ve výšce 5000 ft
bouřka, déšť

TAF: LSZS 180825Z 1809/1818 VRB03KT 9999 FEW007 BKN100 TX19/1813Z TEMPO 1812/1818 SHRA PROB30 1814/1818 4500 TSRA FEW040CB SCT050

Stav a předpovědi počasí z více než 4 000 letišť (zprávy METAR a TAF).

Červené a žluté tečky na mapě představují dostupné meteorologické stanice.

Když kurzor umístíte na tečku, zobrazí se název stanice.

Pak kliknutím zobrazíte stav a předpověď počasí.

Chcete-li změnit mapu, kliknutím na zelené tlačítko se znaménkem +mapu přiblížíte, kliknutím na zelené tlačítko se znaménkem – mapu oddálíte a kliknutím na zelené šipky přejdete na sousední mapy.


METAR-TAF: